sensor_id;sensor_type;location;lat;lon;timestamp;pressure;altitude;pressure_sealevel;temperature;humidity
39411;BME280;26579;43.238;23.124;2022-12-01T00:01:14;97601.09;;;4.53;77.61
39411;BME280;26579;43.238;23.124;2022-12-01T00:03:40;97588.00;;;4.39;77.61
39411;BME280;26579;43.238;23.124;2022-12-01T00:06:10;97604.59;;;4.52;77.47
39411;BME280;26579;43.238;23.124;2022-12-01T00:08:36;97607.13;;;4.54;77.32
39411;BME280;26579;43.238;23.124;2022-12-01T00:11:10;97593.06;;;4.42;77.61
39411;BME280;26579;43.238;23.124;2022-12-01T00:13:35;97585.53;;;4.38;77.75
39411;BME280;26579;43.238;23.124;2022-12-01T00:16:12;97596.66;;;4.38;77.48
39411;BME280;26579;43.238;23.124;2022-12-01T00:18:38;97607.47;;;4.46;78.20
39411;BME280;26579;43.238;23.124;2022-12-01T00:21:03;97614.38;;;4.46;77.59
39411;BME280;26579;43.238;23.124;2022-12-01T00:23:29;97596.59;;;4.40;77.58
39411;BME280;26579;43.238;23.124;2022-12-01T00:26:02;97608.25;;;4.48;77.62
39411;BME280;26579;43.238;23.124;2022-12-01T00:28:27;97600.00;;;4.40;77.17
39411;BME280;26579;43.238;23.124;2022-12-01T00:30:53;97605.94;;;4.42;77.79
39411;BME280;26579;43.238;23.124;2022-12-01T00:33:19;97586.63;;;4.32;78.06
39411;BME280;26579;43.238;23.124;2022-12-01T00:35:44;97610.47;;;4.37;77.81
39411;BME280;26579;43.238;23.124;2022-12-01T00:38:10;97612.13;;;4.38;77.94
39411;BME280;26579;43.238;23.124;2022-12-01T00:40:35;97603.47;;;4.39;77.52
39411;BME280;26579;43.238;23.124;2022-12-01T00:43:01;97591.75;;;4.34;77.36
39411;BME280;26579;43.238;23.124;2022-12-01T00:45:27;97606.16;;;4.38;78.39
39411;BME280;26579;43.238;23.124;2022-12-01T00:47:52;97587.91;;;4.42;76.97
39411;BME280;26579;43.238;23.124;2022-12-01T00:50:18;97585.72;;;4.33;77.92
39411;BME280;26579;43.238;23.124;2022-12-01T00:52:44;97600.84;;;4.41;77.38
39411;BME280;26579;43.238;23.124;2022-12-01T00:55:09;97601.19;;;4.33;77.86
39411;BME280;26579;43.238;23.124;2022-12-01T00:57:35;97606.34;;;4.33;78.33
39411;BME280;26579;43.238;23.124;2022-12-01T01:00:01;97590.75;;;4.36;77.63
39411;BME280;26579;43.238;23.124;2022-12-01T01:02:27;97604.75;;;4.49;77.12
39411;BME280;26579;43.238;23.124;2022-12-01T01:04:53;97597.72;;;4.34;78.00
39411;BME280;26579;43.238;23.124;2022-12-01T01:07:18;97590.53;;;4.41;78.32
39411;BME280;26579;43.238;23.124;2022-12-01T01:09:44;97586.44;;;4.37;77.24
39411;BME280;26579;43.238;23.124;2022-12-01T01:12:10;97574.38;;;4.37;77.06
39411;BME280;26579;43.238;23.124;2022-12-01T01:14:35;97586.06;;;4.44;77.21
39411;BME280;26579;43.238;23.124;2022-12-01T01:17:01;97587.41;;;4.34;77.90
39411;BME280;26579;43.238;23.124;2022-12-01T01:19:27;97577.78;;;4.38;77.89
39411;BME280;26579;43.238;23.124;2022-12-01T01:21:53;97575.00;;;4.42;77.69
39411;BME280;26579;43.238;23.124;2022-12-01T01:24:18;97577.00;;;4.36;78.20
39411;BME280;26579;43.238;23.124;2022-12-01T01:26:44;97555.22;;;4.24;77.31
39411;BME280;26579;43.238;23.124;2022-12-01T01:29:09;97570.19;;;4.35;77.48
39411;BME280;26579;43.238;23.124;2022-12-01T01:31:35;97578.75;;;4.35;76.88
39411;BME280;26579;43.238;23.124;2022-12-01T01:34:01;97563.03;;;4.22;77.48
39411;BME280;26579;43.238;23.124;2022-12-01T01:36:27;97558.72;;;4.23;77.73
39411;BME280;26579;43.238;23.124;2022-12-01T01:38:53;97534.41;;;4.09;77.44
39411;BME280;26579;43.238;23.124;2022-12-01T01:41:19;97557.06;;;4.22;77.46
39411;BME280;26579;43.238;23.124;2022-12-01T01:43:51;97555.03;;;4.09;78.29
39411;BME280;26579;43.238;23.124;2022-12-01T01:46:23;97555.84;;;4.29;77.58
39411;BME280;26579;43.238;23.124;2022-12-01T01:49:07;97561.25;;;4.42;77.61
39411;BME280;26579;43.238;23.124;2022-12-01T01:51:47;97560.72;;;4.35;77.37
39411;BME280;26579;43.238;23.124;2022-12-01T01:56:42;97553.75;;;4.37;77.30
39411;BME280;26579;43.238;23.124;2022-12-01T01:59:10;97553.47;;;4.43;77.22
39411;BME280;26579;43.238;23.124;2022-12-01T02:01:36;97551.19;;;4.37;76.63
39411;BME280;26579;43.238;23.124;2022-12-01T02:04:02;97555.56;;;4.35;76.90
39411;BME280;26579;43.238;23.124;2022-12-01T02:06:28;97552.84;;;4.38;77.06
39411;BME280;26579;43.238;23.124;2022-12-01T02:08:54;97558.75;;;4.40;76.66
39411;BME280;26579;43.238;23.124;2022-12-01T02:27:10;97527.50;;;4.29;76.72
39411;BME280;26579;43.238;23.124;2022-12-01T02:30:13;97549.63;;;4.52;76.14
39411;BME280;26579;43.238;23.124;2022-12-01T02:38:13;97553.97;;;4.32;77.27
39411;BME280;26579;43.238;23.124;2022-12-01T02:40:55;97537.63;;;4.15;77.83
39411;BME280;26579;43.238;23.124;2022-12-01T02:43:30;97543.09;;;4.26;77.68
39411;BME280;26579;43.238;23.124;2022-12-01T02:45:58;97545.41;;;4.32;77.28
39411;BME280;26579;43.238;23.124;2022-12-01T02:48:31;97527.00;;;4.21;77.13
39411;BME280;26579;43.238;23.124;2022-12-01T02:51:03;97549.25;;;4.23;77.64
39411;BME280;26579;43.238;23.124;2022-12-01T02:53:32;97527.50;;;4.29;76.53
39411;BME280;26579;43.238;23.124;2022-12-01T02:55:58;97525.97;;;4.25;77.19
39411;BME280;26579;43.238;23.124;2022-12-01T02:58:24;97537.66;;;4.32;76.58
39411;BME280;26579;43.238;23.124;2022-12-01T03:06:27;97541.50;;;4.23;77.19
39411;BME280;26579;43.238;23.124;2022-12-01T03:11:54;97549.44;;;4.19;77.60
39411;BME280;26579;43.238;23.124;2022-12-01T03:17:18;97541.72;;;4.19;77.47
39411;BME280;26579;43.238;23.124;2022-12-01T03:20:31;97526.69;;;4.09;77.74
39411;BME280;26579;43.238;23.124;2022-12-01T03:23:07;97540.69;;;4.23;77.61
39411;BME280;26579;43.238;23.124;2022-12-01T03:25:36;97534.22;;;4.14;77.30
39411;BME280;26579;43.238;23.124;2022-12-01T03:28:04;97535.94;;;4.14;77.76
39411;BME280;26579;43.238;23.124;2022-12-01T03:30:36;97544.38;;;4.17;77.50
39411;BME280;26579;43.238;23.124;2022-12-01T03:33:05;97544.22;;;4.20;77.38
39411;BME280;26579;43.238;23.124;2022-12-01T03:35:41;97531.22;;;4.04;77.67
39411;BME280;26579;43.238;23.124;2022-12-01T03:38:15;97546.84;;;4.19;77.86
39411;BME280;26579;43.238;23.124;2022-12-01T03:40:43;97529.97;;;4.13;77.35
39411;BME280;26579;43.238;23.124;2022-12-01T03:43:15;97533.16;;;4.18;77.33
39411;BME280;26579;43.238;23.124;2022-12-01T03:46:38;97538.97;;;4.04;77.42
39411;BME280;26579;43.238;23.124;2022-12-01T03:48:44;97535.25;;;4.10;77.71
39411;BME280;26579;43.238;23.124;2022-12-01T03:51:29;97539.13;;;4.19;76.99
39411;BME280;26579;43.238;23.124;2022-12-01T03:56:24;97551.19;;;4.18;76.47
39411;BME280;26579;43.238;23.124;2022-12-01T03:58:54;97548.91;;;4.12;77.06
39411;BME280;26579;43.238;23.124;2022-12-01T04:01:21;97543.06;;;4.08;77.32
39411;BME280;26579;43.238;23.124;2022-12-01T04:03:47;97548.06;;;4.12;76.93
39411;BME280;26579;43.238;23.124;2022-12-01T04:06:13;97546.59;;;4.06;77.39
39411;BME280;26579;43.238;23.124;2022-12-01T04:08:39;97551.97;;;4.20;76.41
39411;BME280;26579;43.238;23.124;2022-12-01T04:11:05;97541.25;;;4.11;76.53
39411;BME280;26579;43.238;23.124;2022-12-01T04:13:31;97544.13;;;4.04;77.07
39411;BME280;26579;43.238;23.124;2022-12-01T04:15:56;97537.97;;;4.07;76.91
39411;BME280;26579;43.238;23.124;2022-12-01T04:18:22;97546.69;;;4.04;76.92
39411;BME280;26579;43.238;23.124;2022-12-01T04:20:49;97540.22;;;3.96;77.28
39411;BME280;26579;43.238;23.124;2022-12-01T04:23:15;97540.75;;;4.02;77.03
39411;BME280;26579;43.238;23.124;2022-12-01T04:25:40;97544.84;;;4.06;76.94
39411;BME280;26579;43.238;23.124;2022-12-01T04:28:06;97539.78;;;4.05;76.49
39411;BME280;26579;43.238;23.124;2022-12-01T04:30:32;97545.00;;;4.03;76.58
39411;BME280;26579;43.238;23.124;2022-12-01T04:32:57;97539.84;;;4.03;76.13
39411;BME280;26579;43.238;23.124;2022-12-01T04:35:23;97551.41;;;4.14;76.46
39411;BME280;26579;43.238;23.124;2022-12-01T04:37:48;97544.84;;;4.06;75.87
39411;BME280;26579;43.238;23.124;2022-12-01T04:40:14;97556.56;;;4.14;76.27
39411;BME280;26579;43.238;23.124;2022-12-01T04:42:40;97559.88;;;4.16;76.11
39411;BME280;26579;43.238;23.124;2022-12-01T04:45:06;97566.38;;;4.05;76.22
39411;BME280;26579;43.238;23.124;2022-12-01T04:47:32;97565.19;;;4.13;76.39
39411;BME280;26579;43.238;23.124;2022-12-01T04:49:57;97551.56;;;4.11;76.25
39411;BME280;26579;43.238;23.124;2022-12-01T04:52:23;97543.97;;;4.07;76.16
39411;BME280;26579;43.238;23.124;2022-12-01T04:54:49;97545.63;;;4.08;75.60
39411;BME280;26579;43.238;23.124;2022-12-01T04:57:14;97564.06;;;4.18;75.36
39411;BME280;26579;43.238;23.124;2022-12-01T04:59:40;97549.47;;;4.00;76.00
39411;BME280;26579;43.238;23.124;2022-12-01T05:02:06;97556.22;;;4.02;75.89
39411;BME280;26579;43.238;23.124;2022-12-01T05:04:31;97561.72;;;4.14;75.53
39411;BME280;26579;43.238;23.124;2022-12-01T05:06:57;97570.34;;;4.13;74.65
39411;BME280;26579;43.238;23.124;2022-12-01T05:09:23;97558.50;;;4.08;75.12
39411;BME280;26579;43.238;23.124;2022-12-01T05:11:48;97564.50;;;4.09;75.23
39411;BME280;26579;43.238;23.124;2022-12-01T05:14:14;97563.25;;;3.99;75.47
39411;BME280;26579;43.238;23.124;2022-12-01T05:16:40;97537.50;;;3.80;75.59
39411;BME280;26579;43.238;23.124;2022-12-01T05:19:06;97551.34;;;3.96;75.41
39411;BME280;26579;43.238;23.124;2022-12-01T05:21:31;97554.34;;;4.06;75.40
39411;BME280;26579;43.238;23.124;2022-12-01T05:23:57;97540.69;;;4.04;75.63
39411;BME280;26579;43.238;23.124;2022-12-01T05:26:22;97551.75;;;4.06;75.55
39411;BME280;26579;43.238;23.124;2022-12-01T05:28:48;97551.69;;;4.07;75.10
39411;BME280;26579;43.238;23.124;2022-12-01T05:31:14;97554.63;;;4.00;75.95
39411;BME280;26579;43.238;23.124;2022-12-01T05:33:39;97560.75;;;3.97;75.39
39411;BME280;26579;43.238;23.124;2022-12-01T05:36:05;97548.91;;;3.93;75.40
39411;BME280;26579;43.238;23.124;2022-12-01T05:38:31;97561.28;;;4.04;75.44
39411;BME280;26579;43.238;23.124;2022-12-01T05:40:56;97543.25;;;4.04;75.04
39411;BME280;26579;43.238;23.124;2022-12-01T05:43:23;97565.34;;;4.09;75.19
39411;BME280;26579;43.238;23.124;2022-12-01T05:45:48;97549.31;;;4.03;74.92
39411;BME280;26579;43.238;23.124;2022-12-01T05:48:15;97548.97;;;3.92;75.58
39411;BME280;26579;43.238;23.124;2022-12-01T05:50:40;97563.41;;;3.96;76.04
39411;BME280;26579;43.238;23.124;2022-12-01T05:53:06;97535.53;;;3.85;76.09
39411;BME280;26579;43.238;23.124;2022-12-01T05:55:35;97558.81;;;4.02;76.59
39411;BME280;26579;43.238;23.124;2022-12-01T05:58:01;97563.81;;;4.05;75.98
39411;BME280;26579;43.238;23.124;2022-12-01T06:00:27;97565.56;;;4.05;75.84
39411;BME280;26579;43.238;23.124;2022-12-01T06:02:53;97559.56;;;4.04;76.20
39411;BME280;26579;43.238;23.124;2022-12-01T06:05:19;97569.50;;;4.12;75.08
39411;BME280;26579;43.238;23.124;2022-12-01T06:07:45;97565.63;;;4.03;75.56
39411;BME280;26579;43.238;23.124;2022-12-01T06:10:11;97565.22;;;3.94;75.92
39411;BME280;26579;43.238;23.124;2022-12-01T06:12:37;97568.41;;;3.99;76.03
39411;BME280;26579;43.238;23.124;2022-12-01T06:15:04;97575.22;;;4.00;75.66
39411;BME280;26579;43.238;23.124;2022-12-01T06:17:30;97572.78;;;3.97;76.49
39411;BME280;26579;43.238;23.124;2022-12-01T06:19:56;97561.84;;;3.92;75.92
39411;BME280;26579;43.238;23.124;2022-12-01T06:22:21;97549.66;;;3.95;75.11
39411;BME280;26579;43.238;23.124;2022-12-01T06:24:47;97565.25;;;3.92;76.12
39411;BME280;26579;43.238;23.124;2022-12-01T06:27:13;97571.88;;;3.98;76.15
39411;BME280;26579;43.238;23.124;2022-12-01T06:29:38;97565.13;;;3.95;76.07
39411;BME280;26579;43.238;23.124;2022-12-01T06:32:04;97547.19;;;3.94;75.60
39411;BME280;26579;43.238;23.124;2022-12-01T06:34:30;97548.97;;;3.92;75.19
39411;BME280;26579;43.238;23.124;2022-12-01T06:36:56;97573.19;;;4.06;75.17
39411;BME280;26579;43.238;23.124;2022-12-01T06:39:21;97572.50;;;4.03;75.97
39411;BME280;26579;43.238;23.124;2022-12-01T06:41:47;97561.66;;;3.96;75.76
39411;BME280;26579;43.238;23.124;2022-12-01T06:44:16;97582.75;;;4.04;75.09
39411;BME280;26579;43.238;23.124;2022-12-01T06:46:41;97550.38;;;3.80;74.61
39411;BME280;26579;43.238;23.124;2022-12-01T06:49:11;97573.50;;;3.81;76.03
39411;BME280;26579;43.238;23.124;2022-12-01T06:51:37;97576.25;;;3.77;75.80
39411;BME280;26579;43.238;23.124;2022-12-01T06:54:03;97574.50;;;3.77;76.63
39411;BME280;26579;43.238;23.124;2022-12-01T06:56:28;97550.00;;;3.69;76.57
39411;BME280;26579;43.238;23.124;2022-12-01T06:58:54;97573.41;;;3.83;75.79
39411;BME280;26579;43.238;23.124;2022-12-01T07:01:20;97569.66;;;3.90;75.78
39411;BME280;26579;43.238;23.124;2022-12-01T07:03:47;97567.97;;;3.89;75.37
39411;BME280;26579;43.238;23.124;2022-12-01T07:06:13;97570.22;;;3.97;75.39
39411;BME280;26579;43.238;23.124;2022-12-01T07:08:39;97572.25;;;3.90;75.21
39411;BME280;26579;43.238;23.124;2022-12-01T07:11:07;97565.13;;;3.76;76.37
39411;BME280;26579;43.238;23.124;2022-12-01T07:13:33;97565.44;;;3.69;77.58
39411;BME280;26579;43.238;23.124;2022-12-01T07:16:02;97562.81;;;3.70;76.66
39411;BME280;26579;43.238;23.124;2022-12-01T07:18:29;97545.16;;;3.42;76.68
39411;BME280;26579;43.238;23.124;2022-12-01T07:21:05;97572.59;;;3.23;77.53
39411;BME280;26579;43.238;23.124;2022-12-01T07:23:35;97578.72;;;3.00;79.34
39411;BME280;26579;43.238;23.124;2022-12-01T07:26:06;97561.69;;;2.75;80.85
39411;BME280;26579;43.238;23.124;2022-12-01T07:28:32;97567.50;;;2.58;82.12
39411;BME280;26579;43.238;23.124;2022-12-01T07:33:31;97586.81;;;2.46;82.86
39411;BME280;26579;43.238;23.124;2022-12-01T07:35:57;97580.16;;;2.42;83.60
39411;BME280;26579;43.238;23.124;2022-12-01T07:38:36;97586.34;;;2.37;83.55
39411;BME280;26579;43.238;23.124;2022-12-01T07:41:10;97586.28;;;2.38;83.49
39411;BME280;26579;43.238;23.124;2022-12-01T07:43:41;97580.31;;;2.38;83.45
39411;BME280;26579;43.238;23.124;2022-12-01T07:46:09;97582.50;;;2.47;83.78
39411;BME280;26579;43.238;23.124;2022-12-01T07:48:37;97576.44;;;2.49;83.63
39411;BME280;26579;43.238;23.124;2022-12-01T07:51:04;97577.66;;;2.61;83.97
39411;BME280;26579;43.238;23.124;2022-12-01T07:53:36;97569.41;;;2.75;83.44
39411;BME280;26579;43.238;23.124;2022-12-01T07:56:02;97559.38;;;2.69;83.04
39411;BME280;26579;43.238;23.124;2022-12-01T07:58:29;97582.34;;;2.74;82.51
39411;BME280;26579;43.238;23.124;2022-12-01T08:00:55;97583.34;;;2.69;82.58
39411;BME280;26579;43.238;23.124;2022-12-01T08:03:21;97579.63;;;2.56;82.19
39411;BME280;26579;43.238;23.124;2022-12-01T08:05:57;97588.19;;;2.55;82.32
39411;BME280;26579;43.238;23.124;2022-12-01T08:08:24;97581.41;;;2.54;81.92
39411;BME280;26579;43.238;23.124;2022-12-01T08:10:50;97571.72;;;2.39;81.62
39411;BME280;26579;43.238;23.124;2022-12-01T08:13:16;97579.78;;;2.52;82.81
39411;BME280;26579;43.238;23.124;2022-12-01T08:15:41;97576.66;;;2.65;82.84
39411;BME280;26579;43.238;23.124;2022-12-01T08:18:07;97576.16;;;2.78;81.52
39411;BME280;26579;43.238;23.124;2022-12-01T08:20:33;97583.38;;;2.90;80.22
39411;BME280;26579;43.238;23.124;2022-12-01T08:22:59;97566.81;;;2.97;80.58
39411;BME280;26579;43.238;23.124;2022-12-01T08:25:25;97586.66;;;3.14;80.06
39411;BME280;26579;43.238;23.124;2022-12-01T08:27:51;97589.72;;;3.24;79.37
39411;BME280;26579;43.238;23.124;2022-12-01T08:30:16;97587.06;;;3.25;78.68
39411;BME280;26579;43.238;23.124;2022-12-01T08:32:42;97592.81;;;3.11;77.46
39411;BME280;26579;43.238;23.124;2022-12-01T08:35:08;97577.09;;;2.97;77.97
39411;BME280;26579;43.238;23.124;2022-12-01T08:37:34;97583.78;;;3.01;78.80
39411;BME280;26579;43.238;23.124;2022-12-01T08:40:00;97569.38;;;2.97;78.47
39411;BME280;26579;43.238;23.124;2022-12-01T08:42:25;97586.22;;;3.04;78.15
39411;BME280;26579;43.238;23.124;2022-12-01T08:44:51;97571.06;;;2.98;78.03
39411;BME280;26579;43.238;23.124;2022-12-01T08:47:17;97585.91;;;3.12;78.20
39411;BME280;26579;43.238;23.124;2022-12-01T08:49:43;97578.50;;;3.04;78.79
39411;BME280;26579;43.238;23.124;2022-12-01T08:52:08;97567.56;;;2.99;78.52
39411;BME280;26579;43.238;23.124;2022-12-01T08:54:34;97575.75;;;3.09;78.84
39411;BME280;26579;43.238;23.124;2022-12-01T08:57:00;97575.38;;;3.18;79.07
39411;BME280;26579;43.238;23.124;2022-12-01T08:59:25;97583.25;;;3.34;77.93
39411;BME280;26579;43.238;23.124;2022-12-01T09:01:51;97574.53;;;3.38;77.35
39411;BME280;26579;43.238;23.124;2022-12-01T09:04:26;97564.94;;;3.42;77.41
39411;BME280;26579;43.238;23.124;2022-12-01T09:06:53;97562.16;;;3.46;76.49
39411;BME280;26579;43.238;23.124;2022-12-01T09:09:26;97565.09;;;3.57;76.16
39411;BME280;26579;43.238;23.124;2022-12-01T09:11:53;97561.50;;;3.61;75.72
39411;BME280;26579;43.238;23.124;2022-12-01T09:14:20;97556.06;;;3.68;75.25
39411;BME280;26579;43.238;23.124;2022-12-01T09:16:47;97561.41;;;3.63;74.92
39411;BME280;26579;43.238;23.124;2022-12-01T09:19:13;97555.28;;;3.66;75.18
39411;BME280;26579;43.238;23.124;2022-12-01T09:21:39;97560.31;;;3.69;75.42
39411;BME280;26579;43.238;23.124;2022-12-01T09:24:06;97559.34;;;3.71;74.87
39411;BME280;26579;43.238;23.124;2022-12-01T09:26:32;97547.69;;;3.62;75.44
39411;BME280;26579;43.238;23.124;2022-12-01T09:29:07;97552.56;;;3.69;75.33
39411;BME280;26579;43.238;23.124;2022-12-01T09:31:33;97552.94;;;3.80;75.29
39411;BME280;26579;43.238;23.124;2022-12-01T09:34:01;97563.09;;;3.83;74.39
39411;BME280;26579;43.238;23.124;2022-12-01T09:36:29;97562.00;;;3.89;74.43
39411;BME280;26579;43.238;23.124;2022-12-01T09:38:55;97567.16;;;3.89;74.47
39411;BME280;26579;43.238;23.124;2022-12-01T09:46:36;97564.44;;;4.11;73.28
39411;BME280;26579;43.238;23.124;2022-12-01T09:49:07;97542.50;;;4.02;73.11
39411;BME280;26579;43.238;23.124;2022-12-01T09:51:50;97545.00;;;4.03;73.35
39411;BME280;26579;43.238;23.124;2022-12-01T09:54:17;97542.66;;;3.99;73.15
39411;BME280;26579;43.238;23.124;2022-12-01T09:56:51;97537.69;;;3.94;73.23
39411;BME280;26579;43.238;23.124;2022-12-01T09:59:22;97552.72;;;4.03;73.53
39411;BME280;26579;43.238;23.124;2022-12-01T10:01:55;97526.75;;;3.89;73.33
39411;BME280;26579;43.238;23.124;2022-12-01T10:04:41;97550.44;;;3.97;73.45
39411;BME280;26579;43.238;23.124;2022-12-01T10:07:18;97523.69;;;3.81;73.78
39411;BME280;26579;43.238;23.124;2022-12-01T10:10:03;97548.16;;;3.91;74.33
39411;BME280;26579;43.238;23.124;2022-12-01T10:12:31;97541.94;;;3.95;74.71
39411;BME280;26579;43.238;23.124;2022-12-01T10:20:53;97540.28;;;3.94;75.06
39411;BME280;26579;43.238;23.124;2022-12-01T10:23:48;97535.47;;;3.86;74.10
39411;BME280;26579;43.238;23.124;2022-12-01T10:26:21;97532.69;;;3.91;74.14
39411;BME280;26579;43.238;23.124;2022-12-01T10:31:55;97540.69;;;3.85;74.86
39411;BME280;26579;43.238;23.124;2022-12-01T10:34:24;97542.50;;;3.83;75.50
39411;BME280;26579;43.238;23.124;2022-12-01T10:36:51;97538.94;;;3.85;75.43
39411;BME280;26579;43.238;23.124;2022-12-01T10:39:40;97538.63;;;3.93;75.92
39411;BME280;26579;43.238;23.124;2022-12-01T10:42:35;97532.22;;;4.02;74.50
39411;BME280;26579;43.238;23.124;2022-12-01T10:45:05;97530.47;;;4.02;74.41
39411;BME280;26579;43.238;23.124;2022-12-01T10:47:31;97528.09;;;3.98;73.96
39411;BME280;26579;43.238;23.124;2022-12-01T10:49:58;97521.81;;;4.03;74.21
39411;BME280;26579;43.238;23.124;2022-12-01T10:52:36;97507.69;;;3.93;74.60
39411;BME280;26579;43.238;23.124;2022-12-01T10:55:05;97501.72;;;3.93;73.89
39411;BME280;26579;43.238;23.124;2022-12-01T10:57:48;97506.25;;;3.88;74.30
39411;BME280;26579;43.238;23.124;2022-12-01T11:00:25;97509.22;;;3.97;74.20
39411;BME280;26579;43.238;23.124;2022-12-01T11:02:54;97506.50;;;4.00;74.44
39411;BME280;26579;43.238;23.124;2022-12-01T11:05:21;97519.78;;;4.10;73.81
39411;BME280;26579;43.238;23.124;2022-12-01T11:07:49;97515.47;;;4.11;73.18
39411;BME280;26579;43.238;23.124;2022-12-01T11:10:24;97513.75;;;4.11;73.46
39411;BME280;26579;43.238;23.124;2022-12-01T11:15:24;97485.53;;;3.89;73.78
39411;BME280;26579;43.238;23.124;2022-12-01T11:18:03;97509.91;;;4.01;74.81
39411;BME280;26579;43.238;23.124;2022-12-01T11:20:32;97505.66;;;4.00;74.66
39411;BME280;26579;43.238;23.124;2022-12-01T11:28:35;97509.81;;;4.21;73.53
39411;BME280;26579;43.238;23.124;2022-12-01T11:31:07;97506.19;;;4.25;72.93
39411;BME280;26579;43.238;23.124;2022-12-01T11:33:53;97508.63;;;4.28;73.07
39411;BME280;26579;43.238;23.124;2022-12-01T11:36:36;97504.06;;;4.16;73.44
39411;BME280;26579;43.238;23.124;2022-12-01T11:39:03;97481.50;;;4.02;73.80
39411;BME280;26579;43.238;23.124;2022-12-01T11:41:35;97511.63;;;4.19;73.42
39411;BME280;26579;43.238;23.124;2022-12-01T11:44:04;97504.25;;;4.12;74.46
39411;BME280;26579;43.238;23.124;2022-12-01T11:46:33;97510.19;;;4.14;74.09
39411;BME280;26579;43.238;23.124;2022-12-01T11:49:00;97503.44;;;4.11;73.80
39411;BME280;26579;43.238;23.124;2022-12-01T11:51:29;97497.84;;;4.20;73.23
39411;BME280;26579;43.238;23.124;2022-12-01T11:54:19;97478.69;;;4.07;73.08
39411;BME280;26579;43.238;23.124;2022-12-01T11:56:47;97500.56;;;4.17;74.13
39411;BME280;26579;43.238;23.124;2022-12-01T11:59:21;97509.44;;;4.29;72.83
39411;BME280;26579;43.238;23.124;2022-12-01T12:15:32;97505.91;;;4.31;72.37
39411;BME280;26579;43.238;23.124;2022-12-01T12:18:19;97503.31;;;4.31;72.47
39411;BME280;26579;43.238;23.124;2022-12-01T12:24:22;97508.09;;;4.22;72.17
39411;BME280;26579;43.238;23.124;2022-12-01T12:35:07;97517.91;;;4.14;72.44
39411;BME280;26579;43.238;23.124;2022-12-01T12:40:34;97516.72;;;4.21;72.71
39411;BME280;26579;43.238;23.124;2022-12-01T12:45:58;97512.63;;;4.17;72.30
39411;BME280;26579;43.238;23.124;2022-12-01T12:48:50;97508.50;;;4.13;72.59
39411;BME280;26579;43.238;23.124;2022-12-01T12:51:34;97508.59;;;4.11;72.11
39411;BME280;26579;43.238;23.124;2022-12-01T12:56:39;97513.75;;;4.11;73.08
39411;BME280;26579;43.238;23.124;2022-12-01T12:59:20;97513.94;;;4.06;73.88
39411;BME280;26579;43.238;23.124;2022-12-01T13:02:11;97512.63;;;3.98;73.42
39411;BME280;26579;43.238;23.124;2022-12-01T13:05:17;97508.38;;;3.97;73.76
39411;BME280;26579;43.238;23.124;2022-12-01T13:10:28;97506.16;;;3.89;74.31
39411;BME280;26579;43.238;23.124;2022-12-01T13:13:24;97511.59;;;3.83;74.91
39411;BME280;26579;43.238;23.124;2022-12-01T13:15:53;97502.34;;;3.79;74.09
39411;BME280;26579;43.238;23.124;2022-12-01T13:20:53;97511.31;;;3.89;74.56
39411;BME280;26579;43.238;23.124;2022-12-01T13:23:20;97507.84;;;3.90;75.07
39411;BME280;26579;43.238;23.124;2022-12-01T13:25:50;97507.69;;;3.93;74.77
39411;BME280;26579;43.238;23.124;2022-12-01T13:28:27;97502.19;;;3.82;75.18
39411;BME280;26579;43.238;23.124;2022-12-01T13:31:06;97509.56;;;3.90;74.89
39411;BME280;26579;43.238;23.124;2022-12-01T13:33:33;97499.47;;;3.85;75.07
39411;BME280;26579;43.238;23.124;2022-12-01T13:36:07;97502.88;;;3.85;75.19
39411;BME280;26579;43.238;23.124;2022-12-01T13:38:36;97508.25;;;3.81;74.94
39411;BME280;26579;43.238;23.124;2022-12-01T14:00:25;97503.59;;;3.70;76.02
39411;BME280;26579;43.238;23.124;2022-12-01T14:08:33;97501.03;;;3.70;75.38
39411;BME280;26579;43.238;23.124;2022-12-01T14:11:02;97501.84;;;3.71;75.35
39411;BME280;26579;43.238;23.124;2022-12-01T14:13:30;97495.63;;;3.75;75.56
39411;BME280;26579;43.238;23.124;2022-12-01T14:15:58;97494.53;;;3.80;75.45
39411;BME280;26579;43.238;23.124;2022-12-01T14:18:36;97490.09;;;3.84;74.83
39411;BME280;26579;43.238;23.124;2022-12-01T14:21:05;97498.31;;;3.73;74.80
39411;BME280;26579;43.238;23.124;2022-12-01T14:24:19;97489.75;;;3.73;74.40
39411;BME280;26579;43.238;23.124;2022-12-01T14:26:20;97488.97;;;3.71;75.18
39411;BME280;26579;43.238;23.124;2022-12-01T14:34:16;97480.19;;;3.37;75.54
39411;BME280;26579;43.238;23.124;2022-12-01T14:36:46;97497.09;;;3.43;75.91
39411;BME280;26579;43.238;23.124;2022-12-01T14:52:34;97503.06;;;3.04;78.46
39411;BME280;26579;43.238;23.124;2022-12-01T14:55:04;97488.34;;;2.87;78.82
39411;BME280;26579;43.238;23.124;2022-12-01T14:57:33;97487.25;;;2.92;78.54
39411;BME280;26579;43.238;23.124;2022-12-01T15:02:47;97501.66;;;2.97;77.89
39411;BME280;26579;43.238;23.124;2022-12-01T15:05:15;97498.00;;;2.82;78.70
39411;BME280;26579;43.238;23.124;2022-12-01T15:07:44;97500.13;;;2.72;79.34
39411;BME280;26579;43.238;23.124;2022-12-01T15:10:31;97478.16;;;2.65;79.59
39411;BME280;26579;43.238;23.124;2022-12-01T15:13:11;97488.22;;;2.69;79.74
39411;BME280;26579;43.238;23.124;2022-12-01T15:15:51;97503.34;;;2.77;79.13
39411;BME280;26579;43.238;23.124;2022-12-01T15:18:36;97503.91;;;2.63;79.44
39411;BME280;26579;43.238;23.124;2022-12-01T15:21:09;97502.38;;;2.59;79.57
39411;BME280;26579;43.238;23.124;2022-12-01T15:23:36;97497.97;;;2.61;79.80
39411;BME280;26579;43.238;23.124;2022-12-01T15:26:21;97507.13;;;2.68;79.35
39411;BME280;26579;43.238;23.124;2022-12-01T15:28:47;97506.34;;;2.66;79.76
39411;BME280;26579;43.238;23.124;2022-12-01T15:31:18;97508.41;;;2.79;79.45
39411;BME280;26579;43.238;23.124;2022-12-01T15:33:52;97500.25;;;2.89;78.64
39411;BME280;26579;43.238;23.124;2022-12-01T15:36:18;97508.41;;;2.99;78.58
39411;BME280;26579;43.238;23.124;2022-12-01T15:38:49;97502.84;;;3.08;78.38
39411;BME280;26579;43.238;23.124;2022-12-01T15:41:19;97509.38;;;2.97;77.86